sensor_id;sensor_type;location;lat;lon;timestamp;P1;durP1;ratioP1;P2;durP2;ratioP2
38693;SDS011;24447;43.460;25.744;2023-05-13T00:00:37;7.30;;;2.95;;
38693;SDS011;24447;43.460;25.744;2023-05-13T00:03:03;7.65;;;2.38;;
38693;SDS011;24447;43.460;25.744;2023-05-13T00:05:28;6.72;;;2.30;;
38693;SDS011;24447;43.460;25.744;2023-05-13T00:07:54;7.88;;;2.92;;
38693;SDS011;24447;43.460;25.744;2023-05-13T00:10:20;3.13;;;2.30;;
38693;SDS011;24447;43.460;25.744;2023-05-13T00:12:46;6.18;;;2.92;;
38693;SDS011;24447;43.460;25.744;2023-05-13T00:15:12;2.53;;;1.88;;
38693;SDS011;24447;43.460;25.744;2023-05-13T00:17:38;3.10;;;2.05;;
38693;SDS011;24447;43.460;25.744;2023-05-13T00:20:04;6.22;;;2.33;;
38693;SDS011;24447;43.460;25.744;2023-05-13T00:22:31;4.50;;;2.88;;
38693;SDS011;24447;43.460;25.744;2023-05-13T00:24:57;4.85;;;2.47;;
38693;SDS011;24447;43.460;25.744;2023-05-13T00:27:23;4.45;;;2.35;;
38693;SDS011;24447;43.460;25.744;2023-05-13T00:29:48;8.88;;;3.42;;
38693;SDS011;24447;43.460;25.744;2023-05-13T00:32:14;6.13;;;2.63;;
38693;SDS011;24447;43.460;25.744;2023-05-13T00:34:40;4.57;;;2.67;;
38693;SDS011;24447;43.460;25.744;2023-05-13T00:37:06;4.15;;;2.30;;
38693;SDS011;24447;43.460;25.744;2023-05-13T00:39:34;4.80;;;2.40;;
38693;SDS011;24447;43.460;25.744;2023-05-13T00:42:00;7.32;;;3.45;;
38693;SDS011;24447;43.460;25.744;2023-05-13T00:44:28;8.73;;;3.35;;
38693;SDS011;24447;43.460;25.744;2023-05-13T00:46:54;7.38;;;2.97;;
38693;SDS011;24447;43.460;25.744;2023-05-13T00:49:20;5.43;;;2.47;;
38693;SDS011;24447;43.460;25.744;2023-05-13T00:51:46;9.23;;;2.55;;
38693;SDS011;24447;43.460;25.744;2023-05-13T00:54:12;6.63;;;2.35;;
38693;SDS011;24447;43.460;25.744;2023-05-13T00:56:38;17.88;;;6.32;;
38693;SDS011;24447;43.460;25.744;2023-05-13T00:59:04;11.38;;;4.25;;
38693;SDS011;24447;43.460;25.744;2023-05-13T01:01:37;12.65;;;4.82;;
38693;SDS011;24447;43.460;25.744;2023-05-13T01:07:05;13.90;;;3.95;;
38693;SDS011;24447;43.460;25.744;2023-05-13T01:12:31;7.18;;;2.85;;
38693;SDS011;24447;43.460;25.744;2023-05-13T01:15:13;5.10;;;2.35;;
38693;SDS011;24447;43.460;25.744;2023-05-13T01:17:46;6.32;;;2.67;;
38693;SDS011;24447;43.460;25.744;2023-05-13T01:20:17;4.50;;;2.35;;
38693;SDS011;24447;43.460;25.744;2023-05-13T01:22:46;7.22;;;3.28;;
38693;SDS011;24447;43.460;25.744;2023-05-13T01:25:12;4.80;;;2.60;;
38693;SDS011;24447;43.460;25.744;2023-05-13T01:27:37;4.90;;;2.70;;
38693;SDS011;24447;43.460;25.744;2023-05-13T01:30:04;8.48;;;3.25;;
38693;SDS011;24447;43.460;25.744;2023-05-13T01:32:31;5.70;;;2.80;;
38693;SDS011;24447;43.460;25.744;2023-05-13T01:34:57;4.88;;;2.50;;
38693;SDS011;24447;43.460;25.744;2023-05-13T01:37:24;4.57;;;2.40;;
38693;SDS011;24447;43.460;25.744;2023-05-13T01:39:50;3.67;;;2.10;;
38693;SDS011;24447;43.460;25.744;2023-05-13T01:42:16;4.75;;;2.13;;
38693;SDS011;24447;43.460;25.744;2023-05-13T01:44:42;5.82;;;2.15;;
38693;SDS011;24447;43.460;25.744;2023-05-13T01:47:08;5.05;;;2.28;;
38693;SDS011;24447;43.460;25.744;2023-05-13T01:49:33;3.95;;;2.15;;
38693;SDS011;24447;43.460;25.744;2023-05-13T01:51:59;3.53;;;2.28;;
38693;SDS011;24447;43.460;25.744;2023-05-13T01:54:25;5.43;;;2.58;;
38693;SDS011;24447;43.460;25.744;2023-05-13T01:56:51;3.80;;;2.30;;
38693;SDS011;24447;43.460;25.744;2023-05-13T01:59:17;4.88;;;3.08;;
38693;SDS011;24447;43.460;25.744;2023-05-13T02:01:43;4.45;;;2.22;;
38693;SDS011;24447;43.460;25.744;2023-05-13T02:04:09;6.93;;;3.00;;
38693;SDS011;24447;43.460;25.744;2023-05-13T02:06:35;3.70;;;2.25;;
38693;SDS011;24447;43.460;25.744;2023-05-13T02:09:01;5.50;;;2.50;;
38693;SDS011;24447;43.460;25.744;2023-05-13T02:11:27;4.15;;;2.25;;
38693;SDS011;24447;43.460;25.744;2023-05-13T02:13:53;4.25;;;2.10;;
38693;SDS011;24447;43.460;25.744;2023-05-13T02:16:20;5.95;;;2.67;;
38693;SDS011;24447;43.460;25.744;2023-05-13T02:18:46;4.40;;;2.30;;
38693;SDS011;24447;43.460;25.744;2023-05-13T02:21:12;6.63;;;2.15;;
38693;SDS011;24447;43.460;25.744;2023-05-13T02:23:38;9.73;;;2.40;;
38693;SDS011;24447;43.460;25.744;2023-05-13T02:26:04;5.45;;;2.35;;
38693;SDS011;24447;43.460;25.744;2023-05-13T02:28:30;6.10;;;2.58;;
38693;SDS011;24447;43.460;25.744;2023-05-13T02:30:55;4.47;;;2.70;;
38693;SDS011;24447;43.460;25.744;2023-05-13T02:33:21;5.00;;;2.60;;
38693;SDS011;24447;43.460;25.744;2023-05-13T02:35:47;5.57;;;2.55;;
38693;SDS011;24447;43.460;25.744;2023-05-13T02:38:13;5.45;;;2.67;;
38693;SDS011;24447;43.460;25.744;2023-05-13T02:40:39;5.57;;;2.50;;
38693;SDS011;24447;43.460;25.744;2023-05-13T02:43:05;4.28;;;2.05;;
38693;SDS011;24447;43.460;25.744;2023-05-13T02:45:31;8.05;;;3.20;;
38693;SDS011;24447;43.460;25.744;2023-05-13T02:47:57;6.53;;;2.95;;
38693;SDS011;24447;43.460;25.744;2023-05-13T02:50:23;4.60;;;2.90;;
38693;SDS011;24447;43.460;25.744;2023-05-13T02:52:50;8.10;;;2.92;;
38693;SDS011;24447;43.460;25.744;2023-05-13T02:55:16;4.60;;;2.50;;
38693;SDS011;24447;43.460;25.744;2023-05-13T02:57:42;7.85;;;3.33;;
38693;SDS011;24447;43.460;25.744;2023-05-13T03:00:08;5.55;;;2.78;;
38693;SDS011;24447;43.460;25.744;2023-05-13T03:02:35;7.35;;;3.30;;
38693;SDS011;24447;43.460;25.744;2023-05-13T03:05:01;8.63;;;3.63;;
38693;SDS011;24447;43.460;25.744;2023-05-13T03:07:27;7.40;;;3.53;;
38693;SDS011;24447;43.460;25.744;2023-05-13T03:09:53;7.80;;;2.80;;
38693;SDS011;24447;43.460;25.744;2023-05-13T03:12:19;3.75;;;2.53;;
38693;SDS011;24447;43.460;25.744;2023-05-13T03:14:46;8.88;;;3.08;;
38693;SDS011;24447;43.460;25.744;2023-05-13T03:17:12;5.93;;;3.13;;
38693;SDS011;24447;43.460;25.744;2023-05-13T03:19:38;6.65;;;3.13;;
38693;SDS011;24447;43.460;25.744;2023-05-13T03:22:04;8.73;;;3.67;;
38693;SDS011;24447;43.460;25.744;2023-05-13T03:24:30;5.68;;;3.00;;
38693;SDS011;24447;43.460;25.744;2023-05-13T03:26:56;6.70;;;3.22;;
38693;SDS011;24447;43.460;25.744;2023-05-13T03:29:22;11.90;;;3.15;;
38693;SDS011;24447;43.460;25.744;2023-05-13T03:31:49;14.82;;;5.80;;
38693;SDS011;24447;43.460;25.744;2023-05-13T03:34:15;15.20;;;5.72;;
38693;SDS011;24447;43.460;25.744;2023-05-13T03:36:41;7.05;;;4.25;;
38693;SDS011;24447;43.460;25.744;2023-05-13T03:39:06;5.20;;;3.63;;
38693;SDS011;24447;43.460;25.744;2023-05-13T03:41:32;9.70;;;3.80;;
38693;SDS011;24447;43.460;25.744;2023-05-13T03:43:59;7.00;;;3.20;;
38693;SDS011;24447;43.460;25.744;2023-05-13T03:46:25;10.55;;;3.13;;
38693;SDS011;24447;43.460;25.744;2023-05-13T03:48:54;4.13;;;2.63;;
38693;SDS011;24447;43.460;25.744;2023-05-13T03:51:20;6.90;;;3.38;;
38693;SDS011;24447;43.460;25.744;2023-05-13T03:53:46;7.03;;;3.75;;
38693;SDS011;24447;43.460;25.744;2023-05-13T03:56:12;5.68;;;2.72;;
38693;SDS011;24447;43.460;25.744;2023-05-13T03:58:39;4.93;;;2.65;;
38693;SDS011;24447;43.460;25.744;2023-05-13T04:01:08;6.22;;;3.33;;
38693;SDS011;24447;43.460;25.744;2023-05-13T04:03:34;11.85;;;2.50;;
38693;SDS011;24447;43.460;25.744;2023-05-13T04:06:00;5.13;;;2.33;;
38693;SDS011;24447;43.460;25.744;2023-05-13T04:08:26;3.17;;;2.10;;
38693;SDS011;24447;43.460;25.744;2023-05-13T04:10:51;5.88;;;2.47;;
38693;SDS011;24447;43.460;25.744;2023-05-13T04:13:18;3.95;;;2.30;;
38693;SDS011;24447;43.460;25.744;2023-05-13T04:15:44;4.60;;;2.63;;
38693;SDS011;24447;43.460;25.744;2023-05-13T04:18:10;5.47;;;2.70;;
38693;SDS011;24447;43.460;25.744;2023-05-13T04:20:36;7.90;;;4.10;;
38693;SDS011;24447;43.460;25.744;2023-05-13T04:23:03;6.63;;;2.92;;
38693;SDS011;24447;43.460;25.744;2023-05-13T04:25:29;5.18;;;2.20;;
38693;SDS011;24447;43.460;25.744;2023-05-13T04:27:55;5.32;;;2.75;;
38693;SDS011;24447;43.460;25.744;2023-05-13T04:30:21;8.88;;;2.72;;
38693;SDS011;24447;43.460;25.744;2023-05-13T04:32:47;5.05;;;2.45;;
38693;SDS011;24447;43.460;25.744;2023-05-13T04:35:13;4.30;;;2.22;;
38693;SDS011;24447;43.460;25.744;2023-05-13T04:37:39;3.75;;;1.92;;
38693;SDS011;24447;43.460;25.744;2023-05-13T04:40:05;6.88;;;2.65;;
38693;SDS011;24447;43.460;25.744;2023-05-13T04:42:34;4.38;;;2.28;;
38693;SDS011;24447;43.460;25.744;2023-05-13T04:45:00;4.43;;;2.05;;
38693;SDS011;24447;43.460;25.744;2023-05-13T04:47:26;4.25;;;2.17;;
38693;SDS011;24447;43.460;25.744;2023-05-13T04:49:52;2.60;;;2.13;;
38693;SDS011;24447;43.460;25.744;2023-05-13T04:52:17;5.15;;;2.47;;
38693;SDS011;24447;43.460;25.744;2023-05-13T04:54:43;5.82;;;2.15;;
38693;SDS011;24447;43.460;25.744;2023-05-13T04:57:09;4.60;;;2.47;;
38693;SDS011;24447;43.460;25.744;2023-05-13T04:59:35;2.75;;;2.00;;
38693;SDS011;24447;43.460;25.744;2023-05-13T05:02:01;5.38;;;2.90;;
38693;SDS011;24447;43.460;25.744;2023-05-13T05:04:27;10.85;;;2.85;;
38693;SDS011;24447;43.460;25.744;2023-05-13T05:06:53;5.63;;;2.65;;
38693;SDS011;24447;43.460;25.744;2023-05-13T05:09:19;3.70;;;2.42;;
38693;SDS011;24447;43.460;25.744;2023-05-13T05:11:45;3.28;;;2.13;;
38693;SDS011;24447;43.460;25.744;2023-05-13T05:14:11;19.42;;;3.25;;
38693;SDS011;24447;43.460;25.744;2023-05-13T05:16:37;3.03;;;1.88;;
38693;SDS011;24447;43.460;25.744;2023-05-13T05:19:03;3.97;;;1.92;;
38693;SDS011;24447;43.460;25.744;2023-05-13T05:21:29;2.92;;;1.88;;
38693;SDS011;24447;43.460;25.744;2023-05-13T05:23:55;4.35;;;1.77;;
38693;SDS011;24447;43.460;25.744;2023-05-13T05:26:23;3.33;;;1.52;;
38693;SDS011;24447;43.460;25.744;2023-05-13T05:28:50;3.70;;;1.80;;
38693;SDS011;24447;43.460;25.744;2023-05-13T05:31:16;2.03;;;1.58;;
38693;SDS011;24447;43.460;25.744;2023-05-13T05:33:41;1.77;;;1.50;;
38693;SDS011;24447;43.460;25.744;2023-05-13T05:36:07;3.70;;;1.80;;
38693;SDS011;24447;43.460;25.744;2023-05-13T05:38:33;3.35;;;1.80;;
38693;SDS011;24447;43.460;25.744;2023-05-13T05:40:59;2.00;;;1.63;;
38693;SDS011;24447;43.460;25.744;2023-05-13T05:43:25;3.08;;;1.65;;
38693;SDS011;24447;43.460;25.744;2023-05-13T05:45:51;2.85;;;1.40;;
38693;SDS011;24447;43.460;25.744;2023-05-13T05:48:17;3.10;;;1.27;;
38693;SDS011;24447;43.460;25.744;2023-05-13T05:50:43;8.27;;;1.67;;
38693;SDS011;24447;43.460;25.744;2023-05-13T05:53:09;3.75;;;1.58;;
38693;SDS011;24447;43.460;25.744;2023-05-13T05:55:35;4.05;;;1.77;;
38693;SDS011;24447;43.460;25.744;2023-05-13T05:58:04;2.17;;;1.55;;
38693;SDS011;24447;43.460;25.744;2023-05-13T06:00:31;1.67;;;1.30;;
38693;SDS011;24447;43.460;25.744;2023-05-13T06:02:57;5.20;;;1.55;;
38693;SDS011;24447;43.460;25.744;2023-05-13T06:05:23;4.22;;;1.70;;
38693;SDS011;24447;43.460;25.744;2023-05-13T06:07:49;2.47;;;1.58;;
38693;SDS011;24447;43.460;25.744;2023-05-13T06:10:15;1.67;;;1.20;;
38693;SDS011;24447;43.460;25.744;2023-05-13T06:12:41;8.07;;;3.10;;
38693;SDS011;24447;43.460;25.744;2023-05-13T06:15:07;3.03;;;1.67;;
38693;SDS011;24447;43.460;25.744;2023-05-13T06:17:35;2.45;;;1.58;;
38693;SDS011;24447;43.460;25.744;2023-05-13T06:20:01;2.67;;;1.80;;
38693;SDS011;24447;43.460;25.744;2023-05-13T06:22:28;3.45;;;1.40;;
38693;SDS011;24447;43.460;25.744;2023-05-13T06:24:54;2.08;;;1.45;;
38693;SDS011;24447;43.460;25.744;2023-05-13T06:27:20;2.80;;;1.50;;
38693;SDS011;24447;43.460;25.744;2023-05-13T06:29:46;2.53;;;1.42;;
38693;SDS011;24447;43.460;25.744;2023-05-13T06:32:12;3.58;;;1.85;;
38693;SDS011;24447;43.460;25.744;2023-05-13T06:34:38;2.47;;;1.65;;
38693;SDS011;24447;43.460;25.744;2023-05-13T06:37:06;2.20;;;1.60;;
38693;SDS011;24447;43.460;25.744;2023-05-13T06:39:32;2.30;;;1.67;;
38693;SDS011;24447;43.460;25.744;2023-05-13T06:41:58;6.10;;;1.83;;
38693;SDS011;24447;43.460;25.744;2023-05-13T06:44:24;2.58;;;1.50;;
38693;SDS011;24447;43.460;25.744;2023-05-13T06:46:50;2.25;;;1.52;;
38693;SDS011;24447;43.460;25.744;2023-05-13T06:49:16;2.58;;;1.45;;
38693;SDS011;24447;43.460;25.744;2023-05-13T06:51:42;4.10;;;2.28;;
38693;SDS011;24447;43.460;25.744;2023-05-13T06:54:08;2.50;;;1.48;;
38693;SDS011;24447;43.460;25.744;2023-05-13T06:56:34;4.70;;;1.48;;
38693;SDS011;24447;43.460;25.744;2023-05-13T06:59:00;3.53;;;1.77;;
38693;SDS011;24447;43.460;25.744;2023-05-13T07:01:26;2.05;;;1.60;;
38693;SDS011;24447;43.460;25.744;2023-05-13T07:03:52;4.35;;;1.65;;
38693;SDS011;24447;43.460;25.744;2023-05-13T07:06:17;3.58;;;1.58;;
38693;SDS011;24447;43.460;25.744;2023-05-13T07:08:43;2.40;;;1.35;;
38693;SDS011;24447;43.460;25.744;2023-05-13T07:11:09;1.73;;;1.63;;
38693;SDS011;24447;43.460;25.744;2023-05-13T07:13:35;2.90;;;2.10;;
38693;SDS011;24447;43.460;25.744;2023-05-13T07:16:01;2.63;;;1.67;;
38693;SDS011;24447;43.460;25.744;2023-05-13T07:18:27;1.67;;;1.27;;
38693;SDS011;24447;43.460;25.744;2023-05-13T07:20:54;7.10;;;1.77;;
38693;SDS011;24447;43.460;25.744;2023-05-13T07:23:23;8.73;;;3.17;;
38693;SDS011;24447;43.460;25.744;2023-05-13T07:25:49;2.38;;;1.80;;
38693;SDS011;24447;43.460;25.744;2023-05-13T07:28:17;3.85;;;1.40;;
38693;SDS011;24447;43.460;25.744;2023-05-13T07:30:46;2.28;;;1.70;;
38693;SDS011;24447;43.460;25.744;2023-05-13T07:33:12;4.65;;;1.75;;
38693;SDS011;24447;43.460;25.744;2023-05-13T07:35:38;3.78;;;1.60;;
38693;SDS011;24447;43.460;25.744;2023-05-13T07:38:05;3.45;;;1.38;;
38693;SDS011;24447;43.460;25.744;2023-05-13T07:40:33;3.67;;;1.08;;
38693;SDS011;24447;43.460;25.744;2023-05-13T07:42:58;1.67;;;1.05;;
38693;SDS011;24447;43.460;25.744;2023-05-13T07:45:24;4.97;;;1.48;;
38693;SDS011;24447;43.460;25.744;2023-05-13T07:47:51;2.15;;;1.55;;
38693;SDS011;24447;43.460;25.744;2023-05-13T07:50:17;9.75;;;1.75;;
38693;SDS011;24447;43.460;25.744;2023-05-13T07:52:43;4.70;;;1.88;;
38693;SDS011;24447;43.460;25.744;2023-05-13T07:55:12;5.10;;;1.27;;
38693;SDS011;24447;43.460;25.744;2023-05-13T07:57:39;4.95;;;1.63;;
38693;SDS011;24447;43.460;25.744;2023-05-13T08:00:05;2.22;;;1.17;;
38693;SDS011;24447;43.460;25.744;2023-05-13T08:02:31;2.35;;;1.23;;
38693;SDS011;24447;43.460;25.744;2023-05-13T08:04:59;1.20;;;1.10;;
38693;SDS011;24447;43.460;25.744;2023-05-13T08:07:25;1.75;;;1.20;;
38693;SDS011;24447;43.460;25.744;2023-05-13T08:09:51;1.88;;;1.70;;
38693;SDS011;24447;43.460;25.744;2023-05-13T08:12:17;3.67;;;1.58;;
38693;SDS011;24447;43.460;25.744;2023-05-13T08:14:43;1.02;;;0.95;;
38693;SDS011;24447;43.460;25.744;2023-05-13T08:17:09;1.20;;;0.93;;
38693;SDS011;24447;43.460;25.744;2023-05-13T08:19:35;1.05;;;0.95;;
38693;SDS011;24447;43.460;25.744;2023-05-13T08:22:01;4.05;;;1.58;;
38693;SDS011;24447;43.460;25.744;2023-05-13T08:24:27;3.40;;;1.88;;
38693;SDS011;24447;43.460;25.744;2023-05-13T08:26:52;1.80;;;1.63;;
38693;SDS011;24447;43.460;25.744;2023-05-13T08:29:18;1.35;;;0.90;;
38693;SDS011;24447;43.460;25.744;2023-05-13T08:31:44;1.77;;;1.10;;
38693;SDS011;24447;43.460;25.744;2023-05-13T08:34:10;3.15;;;1.40;;
38693;SDS011;24447;43.460;25.744;2023-05-13T08:36:36;3.20;;;1.65;;
38693;SDS011;24447;43.460;25.744;2023-05-13T08:39:02;2.75;;;1.45;;
38693;SDS011;24447;43.460;25.744;2023-05-13T08:41:28;3.42;;;1.40;;
38693;SDS011;24447;43.460;25.744;2023-05-13T08:43:57;2.17;;;1.20;;
38693;SDS011;24447;43.460;25.744;2023-05-13T08:46:25;1.20;;;1.10;;
38693;SDS011;24447;43.460;25.744;2023-05-13T08:48:53;1.70;;;1.45;;
38693;SDS011;24447;43.460;25.744;2023-05-13T08:51:20;3.72;;;1.50;;
38693;SDS011;24447;43.460;25.744;2023-05-13T08:53:46;1.60;;;1.33;;
38693;SDS011;24447;43.460;25.744;2023-05-13T08:56:12;6.18;;;1.70;;
38693;SDS011;24447;43.460;25.744;2023-05-13T08:58:38;1.40;;;1.30;;
38693;SDS011;24447;43.460;25.744;2023-05-13T09:01:04;2.58;;;1.45;;
38693;SDS011;24447;43.460;25.744;2023-05-13T09:03:31;2.40;;;1.45;;
38693;SDS011;24447;43.460;25.744;2023-05-13T09:06:01;2.70;;;1.80;;
38693;SDS011;24447;43.460;25.744;2023-05-13T09:08:27;6.97;;;1.88;;
38693;SDS011;24447;43.460;25.744;2023-05-13T09:10:53;1.20;;;1.10;;
38693;SDS011;24447;43.460;25.744;2023-05-13T09:13:19;2.58;;;1.60;;
38693;SDS011;24447;43.460;25.744;2023-05-13T09:15:46;2.72;;;1.52;;
38693;SDS011;24447;43.460;25.744;2023-05-13T09:18:15;1.58;;;1.35;;
38693;SDS011;24447;43.460;25.744;2023-05-13T09:20:41;2.30;;;1.77;;
38693;SDS011;24447;43.460;25.744;2023-05-13T09:23:10;3.28;;;1.48;;
38693;SDS011;24447;43.460;25.744;2023-05-13T09:25:36;4.15;;;1.85;;
38693;SDS011;24447;43.460;25.744;2023-05-13T09:28:04;1.63;;;1.40;;
38693;SDS011;24447;43.460;25.744;2023-05-13T09:30:32;5.80;;;1.35;;
38693;SDS011;24447;43.460;25.744;2023-05-13T09:33:03;3.55;;;2.05;;
38693;SDS011;24447;43.460;25.744;2023-05-13T09:35:33;3.05;;;1.50;;
38693;SDS011;24447;43.460;25.744;2023-05-13T09:38:00;6.97;;;2.08;;
38693;SDS011;24447;43.460;25.744;2023-05-13T09:40:26;2.05;;;1.52;;
38693;SDS011;24447;43.460;25.744;2023-05-13T09:42:55;5.05;;;1.90;;
38693;SDS011;24447;43.460;25.744;2023-05-13T09:45:24;3.53;;;1.75;;
38693;SDS011;24447;43.460;25.744;2023-05-13T09:47:51;7.75;;;1.92;;
38693;SDS011;24447;43.460;25.744;2023-05-13T09:50:17;2.88;;;1.52;;
38693;SDS011;24447;43.460;25.744;2023-05-13T09:52:44;2.60;;;1.83;;
38693;SDS011;24447;43.460;25.744;2023-05-13T09:55:10;2.28;;;1.35;;
38693;SDS011;24447;43.460;25.744;2023-05-13T09:57:37;2.20;;;1.48;;
38693;SDS011;24447;43.460;25.744;2023-05-13T10:00:05;3.75;;;1.45;;
38693;SDS011;24447;43.460;25.744;2023-05-13T10:02:31;2.58;;;1.33;;
38693;SDS011;24447;43.460;25.744;2023-05-13T10:04:58;4.40;;;2.33;;
38693;SDS011;24447;43.460;25.744;2023-05-13T10:07:25;21.83;;;2.08;;
38693;SDS011;24447;43.460;25.744;2023-05-13T10:09:56;2.03;;;1.13;;
38693;SDS011;24447;43.460;25.744;2023-05-13T10:12:24;1.30;;;1.20;;
38693;SDS011;24447;43.460;25.744;2023-05-13T10:14:51;3.95;;;2.10;;
38693;SDS011;24447;43.460;25.744;2023-05-13T10:17:18;1.30;;;1.23;;
38693;SDS011;24447;43.460;25.744;2023-05-13T10:19:46;2.10;;;1.10;;
38693;SDS011;24447;43.460;25.744;2023-05-13T10:22:29;4.60;;;1.27;;
38693;SDS011;24447;43.460;25.744;2023-05-13T10:27:25;1.42;;;1.33;;
38693;SDS011;24447;43.460;25.744;2023-05-13T10:29:53;2.15;;;1.38;;
38693;SDS011;24447;43.460;25.744;2023-05-13T10:32:20;3.42;;;1.65;;
38693;SDS011;24447;43.460;25.744;2023-05-13T10:34:47;1.88;;;1.33;;
38693;SDS011;24447;43.460;25.744;2023-05-13T10:40:09;2.53;;;1.48;;
38693;SDS011;24447;43.460;25.744;2023-05-13T10:42:40;1.50;;;1.30;;
38693;SDS011;24447;43.460;25.744;2023-05-13T10:45:08;1.08;;;0.95;;
38693;SDS011;24447;43.460;25.744;2023-05-13T10:47:35;1.10;;;0.95;;
38693;SDS011;24447;43.460;25.744;2023-05-13T10:50:05;3.22;;;1.20;;
38693;SDS011;24447;43.460;25.744;2023-05-13T10:52:42;2.35;;;1.33;;
38693;SDS011;24447;43.460;25.744;2023-05-13T10:55:15;2.85;;;1.10;;
38693;SDS011;24447;43.460;25.744;2023-05-13T10:58:02;1.52;;;1.17;;
38693;SDS011;24447;43.460;25.744;2023-05-13T11:00:29;4.43;;;1.58;;
38693;SDS011;24447;43.460;25.744;2023-05-13T11:02:56;3.92;;;1.35;;
38693;SDS011;24447;43.460;25.744;2023-05-13T11:05:21;3.13;;;1.40;;
38693;SDS011;24447;43.460;25.744;2023-05-13T11:07:54;1.45;;;1.02;;
38693;SDS011;24447;43.460;25.744;2023-05-13T11:10:24;2.22;;;1.48;;
38693;SDS011;24447;43.460;25.744;2023-05-13T11:15:45;5.90;;;2.55;;
38693;SDS011;24447;43.460;25.744;2023-05-13T11:18:14;2.97;;;1.90;;
38693;SDS011;24447;43.460;25.744;2023-05-13T11:20:39;1.50;;;1.10;;
38693;SDS011;24447;43.460;25.744;2023-05-13T11:23:05;3.00;;;1.20;;
38693;SDS011;24447;43.460;25.744;2023-05-13T11:25:32;2.53;;;1.48;;
38693;SDS011;24447;43.460;25.744;2023-05-13T11:27:59;3.88;;;1.52;;
38693;SDS011;24447;43.460;25.744;2023-05-13T11:30:25;2.05;;;1.15;;
38693;SDS011;24447;43.460;25.744;2023-05-13T11:37:45;3.92;;;1.58;;
38693;SDS011;24447;43.460;25.744;2023-05-13T11:40:22;2.55;;;1.60;;
38693;SDS011;24447;43.460;25.744;2023-05-13T11:42:49;2.83;;;1.40;;
38693;SDS011;24447;43.460;25.744;2023-05-13T11:45:15;1.38;;;1.25;;
38693;SDS011;24447;43.460;25.744;2023-05-13T11:47:42;2.35;;;1.20;;
38693;SDS011;24447;43.460;25.744;2023-05-13T11:50:25;2.05;;;1.30;;
38693;SDS011;24447;43.460;25.744;2023-05-13T11:52:59;1.63;;;1.02;;
38693;SDS011;24447;43.460;25.744;2023-05-13T11:55:27;21.15;;;3.22;;
38693;SDS011;24447;43.460;25.744;2023-05-13T11:57:53;6.00;;;2.15;;
38693;SDS011;24447;43.460;25.744;2023-05-13T12:00:27;4.45;;;1.83;;
38693;SDS011;24447;43.460;25.744;2023-05-13T12:02:56;1.60;;;1.00;;
38693;SDS011;24447;43.460;25.744;2023-05-13T12:05:23;1.63;;;1.42;;
38693;SDS011;24447;43.460;25.744;2023-05-13T12:07:49;12.15;;;1.73;;
38693;SDS011;24447;43.460;25.744;2023-05-13T12:10:15;2.70;;;1.58;;
38693;SDS011;24447;43.460;25.744;2023-05-13T12:12:42;2.33;;;1.35;;
38693;SDS011;24447;43.460;25.744;2023-05-13T12:15:10;6.50;;;1.90;;
38693;SDS011;24447;43.460;25.744;2023-05-13T12:17:37;4.85;;;1.30;;
38693;SDS011;24447;43.460;25.744;2023-05-13T12:22:32;1.63;;;1.25;;
38693;SDS011;24447;43.460;25.744;2023-05-13T12:24:58;2.33;;;1.10;;
38693;SDS011;24447;43.460;25.744;2023-05-13T12:27:26;1.63;;;1.30;;
38693;SDS011;24447;43.460;25.744;2023-05-13T12:29:55;2.80;;;1.30;;
38693;SDS011;24447;43.460;25.744;2023-05-13T12:32:23;5.47;;;1.25;;
38693;SDS011;24447;43.460;25.744;2023-05-13T12:34:50;2.40;;;1.20;;
38693;SDS011;24447;43.460;25.744;2023-05-13T12:37:16;4.95;;;1.63;;
38693;SDS011;24447;43.460;25.744;2023-05-13T12:39:42;2.05;;;1.20;;
38693;SDS011;24447;43.460;25.744;2023-05-13T12:42:12;2.60;;;1.63;;
38693;SDS011;24447;43.460;25.744;2023-05-13T12:44:44;2.42;;;1.48;;
38693;SDS011;24447;43.460;25.744;2023-05-13T12:47:11;4.78;;;1.60;;
38693;SDS011;24447;43.460;25.744;2023-05-13T12:49:52;2.30;;;1.85;;
38693;SDS011;24447;43.460;25.744;2023-05-13T12:52:24;2.30;;;1.33;;
38693;SDS011;24447;43.460;25.744;2023-05-13T12:54:50;1.92;;;1.52;;
38693;SDS011;24447;43.460;25.744;2023-05-13T12:57:16;2.03;;;1.38;;
38693;SDS011;24447;43.460;25.744;2023-05-13T12:59:43;2.30;;;1.52;;
38693;SDS011;24447;43.460;25.744;2023-05-13T13:02:10;2.50;;;1.35;;
38693;SDS011;24447;43.460;25.744;2023-05-13T13:04:36;2.28;;;1.17;;
38693;SDS011;24447;43.460;25.744;2023-05-13T13:07:02;4.53;;;1.73;;
38693;SDS011;24447;43.460;25.744;2023-05-13T13:09:28;4.78;;;1.70;;
38693;SDS011;24447;43.460;25.744;2023-05-13T13:11:54;9.00;;;1.65;;
38693;SDS011;24447;43.460;25.744;2023-05-13T13:14:20;4.90;;;1.48;;
38693;SDS011;24447;43.460;25.744;2023-05-13T13:16:47;2.28;;;1.55;;
38693;SDS011;24447;43.460;25.744;2023-05-13T13:19:13;3.03;;;1.25;;
38693;SDS011;24447;43.460;25.744;2023-05-13T13:21:39;2.58;;;1.42;;
38693;SDS011;24447;43.460;25.744;2023-05-13T13:24:05;2.97;;;1.33;;
38693;SDS011;24447;43.460;25.744;2023-05-13T13:26:31;3.63;;;1.73;;
38693;SDS011;24447;43.460;25.744;2023-05-13T13:28:57;2.33;;;1.70;;
38693;SDS011;24447;43.460;25.744;2023-05-13T13:31:23;2.08;;;1.35;;
38693;SDS011;24447;43.460;25.744;2023-05-13T13:33:49;3.08;;;1.75;;
38693;SDS011;24447;43.460;25.744;2023-05-13T13:36:15;13.30;;;3.78;;
38693;SDS011;24447;43.460;25.744;2023-05-13T13:38:41;2.03;;;1.13;;
38693;SDS011;24447;43.460;25.744;2023-05-13T13:41:07;2.60;;;1.48;;
38693;SDS011;24447;43.460;25.744;2023-05-13T13:43:33;3.28;;;1.70;;
38693;SDS011;24447;43.460;25.744;2023-05-13T13:45:58;3.03;;;1.75;;
38693;SDS011;24447;43.460;25.744;2023-05-13T13:48:24;4.68;;;1.67;;
38693;SDS011;24447;43.460;25.744;2023-05-13T13:50:50;2.75;;;2.15;;
38693;SDS011;24447;43.460;25.744;2023-05-13T13:53:16;5.72;;;1.42;;
38693;SDS011;24447;43.460;25.744;2023-05-13T13:55:42;4.28;;;2.22;;
38693;SDS011;24447;43.460;25.744;2023-05-13T13:58:08;3.08;;;1.98;;
38693;SDS011;24447;43.460;25.744;2023-05-13T14:00:34;8.40;;;2.88;;
38693;SDS011;24447;43.460;25.744;2023-05-13T14:03:00;1.55;;;1.45;;
38693;SDS011;24447;43.460;25.744;2023-05-13T14:05:26;3.60;;;1.27;;
38693;SDS011;24447;43.460;25.744;2023-05-13T14:07:52;2.58;;;1.77;;
38693;SDS011;24447;43.460;25.744;2023-05-13T14:10:19;3.65;;;1.75;;
38693;SDS011;24447;43.460;25.744;2023-05-13T14:12:45;1.42;;;1.10;;
38693;SDS011;24447;43.460;25.744;2023-05-13T14:15:11;2.92;;;1.52;;
38693;SDS011;24447;43.460;25.744;2023-05-13T14:17:37;6.18;;;1.80;;
38693;SDS011;24447;43.460;25.744;2023-05-13T14:20:04;1.65;;;1.25;;
38693;SDS011;24447;43.460;25.744;2023-05-13T14:22:30;1.75;;;1.45;;
38693;SDS011;24447;43.460;25.744;2023-05-13T14:24:57;1.75;;;1.30;;
38693;SDS011;24447;43.460;25.744;2023-05-13T14:27:23;1.90;;;1.05;;
38693;SDS011;24447;43.460;25.744;2023-05-13T14:29:49;1.20;;;1.13;;
38693;SDS011;24447;43.460;25.744;2023-05-13T14:32:15;2.20;;;1.52;;
38693;SDS011;24447;43.460;25.744;2023-05-13T14:34:41;3.92;;;1.20;;
38693;SDS011;24447;43.460;25.744;2023-05-13T14:37:07;2.92;;;1.92;;
38693;SDS011;24447;43.460;25.744;2023-05-13T14:39:33;2.47;;;1.17;;
38693;SDS011;24447;43.460;25.744;2023-05-13T14:41:59;5.22;;;1.25;;
38693;SDS011;24447;43.460;25.744;2023-05-13T14:44:25;1.67;;;1.55;;
38693;SDS011;24447;43.460;25.744;2023-05-13T14:46:51;4.07;;;2.08;;
38693;SDS011;24447;43.460;25.744;2023-05-13T14:49:17;2.88;;;1.70;;
38693;SDS011;24447;43.460;25.744;2023-05-13T14:51:43;2.28;;;1.20;;